Time;durP1;ratioP1;P1;durP2;ratioP2;P2;SDS_P1;SDS_P2;PMS_P1;PMS_P2;Temp;Humidity;BMP_temperature;BMP_pressure;BME280_temperature;BME280_humidity;BME280_pressure;Samples;Min_cycle;Max_cycle;Signal;HPM_P1;HPM_P2
2021/12/25 00:00:01;;;;;;;23.10;15.27;;;;;;;4.72;100.00;97932.13;5071824;28;20276;-85
2021/12/25 00:02:30;;;;;;;18.33;14.07;;;;;;;4.96;100.00;97928.97;5020251;28;20193;-85
2021/12/25 00:05:01;;;;;;;14.27;11.87;;;;;;;5.11;100.00;97923.59;4985989;28;20281;-85
2021/12/25 00:07:32;;;;;;;19.17;14.60;;;;;;;5.10;100.00;97921.09;4985511;28;20207;-85
2021/12/25 00:10:01;;;;;;;40.17;16.07;;;;;;;5.11;100.00;97918.34;4991161;28;20198;-85
2021/12/25 00:12:30;;;;;;;20.80;14.67;;;;;;;5.14;100.00;97914.72;4994710;28;20252;-86
2021/12/25 00:14:58;;;;;;;17.07;13.00;;;;;;;5.16;100.00;97913.69;4995665;28;20254;-85
2021/12/25 00:17:30;;;;;;;17.87;13.20;;;;;;;5.28;100.00;97925.19;4995321;28;20286;-85
2021/12/25 00:19:59;;;;;;;17.10;12.87;;;;;;;5.45;100.00;97932.03;4989910;28;20286;-85
2021/12/25 00:22:32;;;;;;;16.13;12.60;;;;;;;5.35;100.00;97931.75;5016233;28;20658;-85
2021/12/25 00:25:00;;;;;;;17.20;13.30;;;;;;;5.49;100.00;97930.03;5075545;28;20304;-85
2021/12/25 00:30:30;;;;;;;18.47;13.70;;;;;;;5.58;100.00;97935.53;5079686;28;20226;-84
2021/12/25 00:33:03;;;;;;;17.10;13.27;;;;;;;5.60;100.00;97943.34;5084732;28;20250;-86
2021/12/25 00:35:31;;;;;;;17.00;13.33;;;;;;;5.65;100.00;97942.09;5080827;28;20197;-86
2021/12/25 00:38:01;;;;;;;16.77;13.23;;;;;;;5.63;100.00;97946.63;5080851;28;20204;-85
2021/12/25 00:40:29;;;;;;;17.87;13.40;;;;;;;5.54;100.00;97957.69;5079434;28;20195;-85
2021/12/25 00:42:57;;;;;;;16.47;13.13;;;;;;;5.51;100.00;97965.78;5090853;28;20188;-85
2021/12/25 00:45:26;;;;;;;15.63;13.07;;;;;;;5.43;100.00;97962.78;5086636;28;20254;-86
2021/12/25 00:47:54;;;;;;;16.93;13.23;;;;;;;5.47;100.00;97961.63;5079201;28;20200;-85
2021/12/25 00:50:23;;;;;;;16.10;12.53;;;;;;;5.53;100.00;97955.19;5080949;28;20196;-85
2021/12/25 00:52:51;;;;;;;16.33;12.50;;;;;;;5.57;100.00;97954.88;5079161;28;20199;-85
2021/12/25 00:55:22;;;;;;;17.23;12.43;;;;;;;5.65;100.00;97959.66;5075822;28;20195;-85
2021/12/25 00:57:51;;;;;;;16.30;12.33;;;;;;;5.54;100.00;97970.00;5074533;28;20322;-85
2021/12/25 01:00:20;;;;;;;12.67;10.73;;;;;;;5.51;100.00;97965.78;5080136;28;20200;-86
2021/12/25 01:02:50;;;;;;;14.57;11.47;;;;;;;5.45;100.00;97966.16;5078002;28;20658;-86
2021/12/25 01:05:19;;;;;;;17.17;12.80;;;;;;;5.58;100.00;97974.94;5074942;28;20212;-86
2021/12/25 01:07:51;;;;;;;18.03;12.73;;;;;;;5.56;100.00;97970.72;5077224;28;20184;-84
2021/12/25 01:10:22;;;;;;;14.27;11.47;;;;;;;5.41;100.00;97954.16;5079598;28;20204;-85
2021/12/25 01:13:01;;;;;;;11.37;8.83;;;;;;;5.45;100.00;97950.41;5077469;28;20196;-85
2021/12/25 01:15:46;;;;;;;10.23;8.00;;;;;;;5.55;100.00;97943.63;5080413;28;20193;-86
2021/12/25 01:24:16;;;;;;;7.47;6.00;;;;;;;5.31;100.00;97948.66;5067778;28;20203;-85
2021/12/25 01:29:38;;;;;;;6.03;4.70;;;;;;;5.28;100.00;97940.94;5075289;28;20204;-86
2021/12/25 01:32:35;;;;;;;4.70;4.20;;;;;;;5.21;100.00;97949.28;5073325;28;20244;-85
2021/12/25 01:38:24;;;;;;;4.30;3.67;;;;;;;5.07;100.00;97953.59;5014940;28;20221;-86
2021/12/25 01:41:04;;;;;;;5.77;3.57;;;;;;;4.97;100.00;97954.25;5015021;28;20328;-85
2021/12/25 01:49:06;;;;;;;3.30;2.97;;;;;;;4.87;100.00;97960.06;5091638;28;20193;-85
2021/12/25 01:51:36;;;;;;;4.23;3.70;;;;;;;4.86;100.00;97961.00;5073090;28;20192;-85
2021/12/25 01:54:06;;;;;;;4.10;3.70;;;;;;;4.85;100.00;97961.09;5073758;28;20185;-86
2021/12/25 01:56:40;;;;;;;4.37;3.90;;;;;;;4.85;100.00;97964.56;5078297;28;20698;-86
2021/12/25 01:59:10;;;;;;;4.90;4.07;;;;;;;4.80;100.00;97974.47;5071118;28;20211;-84
2021/12/25 02:01:38;;;;;;;4.77;4.27;;;;;;;4.73;100.00;97978.44;5078558;28;20275;-85
2021/12/25 02:04:08;;;;;;;5.17;4.67;;;;;;;4.71;100.00;97975.03;5079353;28;20185;-86
2021/12/25 02:06:38;;;;;;;6.30;5.50;;;;;;;4.67;100.00;97968.28;5077309;28;20239;-86
2021/12/25 02:09:08;;;;;;;6.20;5.20;;;;;;;4.69;100.00;97969.03;5074467;28;20203;-85
2021/12/25 02:11:39;;;;;;;6.10;4.97;;;;;;;4.80;100.00;97958.75;5079632;28;20196;-86
2021/12/25 02:14:07;;;;;;;5.90;5.20;;;;;;;4.72;100.00;97957.50;5073210;28;20279;-84
2021/12/25 02:16:50;;;;;;;5.80;5.20;;;;;;;4.81;100.00;97956.97;5078703;28;20197;-85
2021/12/25 02:19:33;;;;;;;7.27;5.97;;;;;;;4.79;100.00;97958.84;5072009;28;20694;-86
2021/12/25 02:22:03;;;;;;;6.70;6.00;;;;;;;4.60;100.00;97957.31;5074728;28;20246;-85
2021/12/25 02:24:33;;;;;;;6.53;5.77;;;;;;;4.62;100.00;97949.34;5036521;28;20196;-85
2021/12/25 02:27:01;;;;;;;6.77;6.07;;;;;;;4.57;100.00;97956.66;5081381;28;20207;-85
2021/12/25 02:29:29;;;;;;;8.43;6.33;;;;;;;4.76;100.00;97965.13;5074118;28;20225;-85
2021/12/25 02:32:03;;;;;;;7.83;6.80;;;;;;;4.62;100.00;97962.47;5076570;28;20232;-85
2021/12/25 02:34:32;;;;;;;7.60;6.47;;;;;;;4.46;100.00;97956.44;5074777;28;20200;-85
2021/12/25 02:37:00;;;;;;;7.90;7.10;;;;;;;4.45;100.00;97966.09;5073164;28;20192;-86
2021/12/25 02:39:30;;;;;;;8.87;7.67;;;;;;;4.27;100.00;97954.06;5067029;28;20196;-85
2021/12/25 02:41:59;;;;;;;10.77;9.03;;;;;;;4.38;100.00;97953.44;5070345;28;20208;-86
2021/12/25 02:44:28;;;;;;;9.50;8.47;;;;;;;4.42;100.00;97962.78;5072282;28;20196;-85
2021/12/25 02:46:59;;;;;;;10.50;8.40;;;;;;;4.39;100.00;97957.72;5073857;28;20265;-85
2021/12/25 02:49:27;;;;;;;9.80;8.27;;;;;;;4.35;100.00;97954.47;5066456;28;20195;-85
2021/12/25 02:51:58;;;;;;;12.17;10.13;;;;;;;4.11;100.00;97953.25;5069312;28;20200;-85
2021/12/25 02:54:28;;;;;;;11.80;9.20;;;;;;;4.15;100.00;97939.91;5074678;28;20215;-86
2021/12/25 02:56:58;;;;;;;13.90;10.77;;;;;;;3.98;100.00;97943.47;5071843;28;20196;-85
2021/12/25 02:59:26;;;;;;;13.13;10.50;;;;;;;3.89;100.00;97946.59;5074772;28;20204;-85
2021/12/25 03:02:06;;;;;;;12.97;9.87;;;;;;;3.82;100.00;97944.41;5064415;28;20275;-86
2021/12/25 03:04:37;;;;;;;13.83;10.80;;;;;;;3.86;100.00;97945.91;5067801;28;20200;-85
2021/12/25 03:07:06;;;;;;;14.57;11.57;;;;;;;3.82;100.00;97936.56;5074320;28;20215;-84
2021/12/25 03:09:34;;;;;;;14.03;11.40;;;;;;;3.66;100.00;97940.03;5074282;28;20189;-86
2021/12/25 03:12:12;;;;;;;13.97;11.13;;;;;;;3.76;100.00;97944.75;5065949;28;20207;-85
2021/12/25 03:15:03;;;;;;;14.33;11.07;;;;;;;3.88;100.00;97946.69;5070478;28;20200;-85
2021/12/25 03:17:32;;;;;;;15.13;12.03;;;;;;;3.83;100.00;97946.09;5070181;28;20188;-85
2021/12/25 03:20:01;;;;;;;15.50;11.43;;;;;;;3.94;100.00;97954.19;5061877;28;20208;-85
2021/12/25 03:22:30;;;;;;;12.70;10.00;;;;;;;3.94;100.00;97952.41;5071261;28;20447;-85
2021/12/25 03:25:01;;;;;;;14.50;10.60;;;;;;;3.83;100.00;97956.56;5073971;28;20196;-84
2021/12/25 03:27:33;;;;;;;14.67;10.47;;;;;;;4.04;100.00;97952.75;5071016;28;20243;-85
2021/12/25 03:30:01;;;;;;;14.00;10.77;;;;;;;4.02;100.00;97954.59;5076332;28;20199;-85
2021/12/25 03:32:30;;;;;;;14.77;11.60;;;;;;;3.90;100.00;97955.31;5080267;28;20218;-84
2021/12/25 03:34:58;;;;;;;12.13;9.90;;;;;;;3.93;100.00;97955.97;5089253;28;20250;-85
2021/12/25 03:37:27;;;;;;;13.20;10.37;;;;;;;4.08;100.00;97956.03;5079185;28;20651;-85
2021/12/25 03:39:55;;;;;;;13.03;10.20;;;;;;;3.96;100.00;97957.59;5073868;28;20200;-86
2021/12/25 03:42:24;;;;;;;12.73;10.13;;;;;;;4.05;100.00;97954.41;5067686;28;20189;-86
2021/12/25 03:44:53;;;;;;;10.47;8.50;;;;;;;4.02;100.00;97955.44;5067579;28;20192;-85
2021/12/25 03:47:28;;;;;;;10.10;8.13;;;;;;;4.09;100.00;97961.19;5070633;28;20220;-85
2021/12/25 03:58:19;;;;;;;9.10;7.30;;;;;;;3.91;100.00;97951.75;5073703;28;20257;-86
2021/12/25 04:00:50;;;;;;;7.80;6.53;;;;;;;3.98;100.00;97947.88;5069436;28;20200;-85
2021/12/25 04:03:25;;;;;;;7.90;6.77;;;;;;;3.86;100.00;97949.41;5070048;28;20195;-86
2021/12/25 04:05:54;;;;;;;8.47;6.40;;;;;;;3.99;100.00;97952.16;5061848;28;20216;-86
2021/12/25 04:08:30;;;;;;;8.20;6.70;;;;;;;3.78;100.00;97943.75;5064716;28;20204;-87
2021/12/25 04:11:10;;;;;;;7.60;6.33;;;;;;;3.70;100.00;97946.78;5070862;28;20200;-87
2021/12/25 04:13:40;;;;;;;7.33;5.97;;;;;;;3.76;100.00;97947.38;5068144;28;20200;-86
2021/12/25 04:16:10;;;;;;;6.60;5.90;;;;;;;3.85;100.00;97949.47;5067214;28;20203;-86
2021/12/25 04:18:39;;;;;;;6.17;5.50;;;;;;;3.58;100.00;97960.56;5069448;28;20238;-86
2021/12/25 04:21:07;;;;;;;5.93;5.27;;;;;;;3.77;100.00;97960.41;5065917;28;20204;-85
2021/12/25 04:23:39;;;;;;;5.83;5.03;;;;;;;3.84;100.00;97958.25;5064719;28;20214;-86
2021/12/25 04:26:08;;;;;;;6.60;4.97;;;;;;;3.54;100.00;97961.66;5069352;28;20216;-86
2021/12/25 04:28:43;;;;;;;5.70;4.53;;;;;;;3.56;100.00;97962.41;4992206;28;20254;-85
2021/12/25 04:31:30;;;;;;;4.63;4.07;;;;;;;3.65;100.00;97958.44;4984034;28;20206;-86
2021/12/25 05:01:58;;;;;;;4.30;3.90;;;;;;;3.39;100.00;97967.75;5076889;28;20188;-88
2021/12/25 05:04:33;;;;;;;6.77;4.70;;;;;;;3.24;100.00;97969.41;5073663;28;20207;-87
2021/12/25 05:07:05;;;;;;;4.70;4.20;;;;;;;3.27;100.00;97966.59;5066252;28;20228;-88
2021/12/25 05:09:33;;;;;;;4.63;4.13;;;;;;;3.17;100.00;97963.63;5066839;28;20207;-88
2021/12/25 05:12:02;;;;;;;5.00;4.50;;;;;;;3.31;100.00;97962.91;5071556;28;20192;-87
2021/12/25 05:14:30;;;;;;;4.87;4.37;;;;;;;3.25;100.00;97965.00;5076547;28;20192;-88
2021/12/25 05:16:58;;;;;;;5.20;4.17;;;;;;;3.19;100.00;97963.59;5071222;28;20619;-86
2021/12/25 05:19:28;;;;;;;4.97;4.47;;;;;;;3.26;100.00;97964.91;5066086;28;20195;-86
2021/12/25 05:21:57;;;;;;;5.90;4.63;;;;;;;3.28;100.00;97964.84;5063153;28;20200;-88
2021/12/25 05:24:27;;;;;;;5.13;4.63;;;;;;;3.27;100.00;97971.00;5073898;28;20195;-87
2021/12/25 05:26:57;;;;;;;5.20;4.57;;;;;;;3.28;100.00;97975.28;4995277;28;20216;-88
2021/12/25 05:29:30;;;;;;;5.53;4.80;;;;;;;3.19;100.00;97974.06;5079820;28;20201;-87
2021/12/25 05:31:58;;;;;;;5.83;4.30;;;;;;;3.23;100.00;97977.34;5065218;28;20235;-86
2021/12/25 05:34:28;;;;;;;5.87;4.87;;;;;;;3.13;100.00;97976.97;5069348;28;20199;-88
2021/12/25 05:37:00;;;;;;;5.70;5.03;;;;;;;3.06;100.00;97986.06;5071432;28;20234;-87
2021/12/25 05:39:28;;;;;;;6.60;4.87;;;;;;;3.12;100.00;97983.97;5073526;28;20195;-87
2021/12/25 05:41:57;;;;;;;5.17;4.67;;;;;;;2.85;100.00;97990.66;5073122;28;20201;-87
2021/12/25 05:44:28;;;;;;;5.00;4.50;;;;;;;2.93;100.00;97990.25;5073663;28;20199;-87
2021/12/25 05:46:56;;;;;;;7.70;5.13;;;;;;;2.97;100.00;97987.38;5068911;28;20270;-87
2021/12/25 05:49:25;;;;;;;6.00;4.70;;;;;;;2.84;100.00;97992.41;5074700;28;20189;-84
2021/12/25 05:51:55;;;;;;;6.00;4.87;;;;;;;2.85;100.00;97988.03;5070670;28;20247;-86
2021/12/25 05:54:30;;;;;;;5.80;5.10;;;;;;;2.88;100.00;97991.31;5072033;28;20203;-85
2021/12/25 05:56:58;;;;;;;6.13;5.30;;;;;;;2.75;100.00;97989.44;5066594;28;20298;-86
2021/12/25 05:59:28;;;;;;;5.67;4.77;;;;;;;2.90;100.00;97996.50;5076322;28;20203;-85
2021/12/25 06:02:00;;;;;;;8.67;5.13;;;;;;;2.78;100.00;97990.09;5074841;28;20231;-86
2021/12/25 06:04:29;;;;;;;5.33;4.57;;;;;;;2.77;100.00;97993.66;5071065;28;20279;-86
2021/12/25 06:06:59;;;;;;;7.20;5.00;;;;;;;2.65;100.00;97994.28;5081764;28;20242;-86
2021/12/25 06:09:27;;;;;;;5.43;4.70;;;;;;;2.71;100.00;97993.13;5072990;28;20250;-85
2021/12/25 06:11:56;;;;;;;5.03;4.53;;;;;;;2.61;100.00;98003.22;5068585;28;20200;-86
2021/12/25 06:14:24;;;;;;;5.63;4.70;;;;;;;2.55;100.00;98000.91;5073916;28;20200;-86
2021/12/25 06:16:53;;;;;;;6.10;5.03;;;;;;;2.52;100.00;97999.28;5068936;28;20254;-87
2021/12/25 06:19:27;;;;;;;6.10;5.00;;;;;;;2.49;100.00;98001.19;5071115;28;20200;-87
2021/12/25 06:21:56;;;;;;;6.37;5.37;;;;;;;2.53;100.00;98000.13;5072002;28;20193;-86
2021/12/25 06:24:27;;;;;;;5.87;4.90;;;;;;;2.63;100.00;98001.38;5073181;28;20705;-87
2021/12/25 06:26:55;;;;;;;7.20;5.43;;;;;;;2.70;100.00;98001.88;5076695;28;20209;-85
2021/12/25 06:29:23;;;;;;;7.57;5.77;;;;;;;2.53;100.00;98002.75;5069238;28;20204;-86
2021/12/25 06:31:53;;;;;;;9.47;6.23;;;;;;;2.45;100.00;97995.28;5068415;28;20227;-87
2021/12/25 06:34:21;;;;;;;7.33;5.50;;;;;;;2.57;100.00;98001.66;5070458;28;20280;-88
2021/12/25 06:36:49;;;;;;;6.63;5.30;;;;;;;2.44;100.00;98006.66;5066603;28;20189;-87
2021/12/25 06:39:18;;;;;;;6.47;5.40;;;;;;;2.45;100.00;98010.97;5071875;28;20196;-87
2021/12/25 06:41:49;;;;;;;7.27;6.30;;;;;;;2.29;100.00;98012.63;5099457;28;20203;-82
2021/12/25 06:44:17;;;;;;;6.90;5.80;;;;;;;2.32;100.00;98009.03;5079628;28;20196;-87
2021/12/25 06:46:46;;;;;;;8.43;6.63;;;;;;;2.27;100.00;98002.28;5065878;28;20201;-87
2021/12/25 06:49:15;;;;;;;7.33;6.23;;;;;;;2.09;100.00;98012.78;5064806;28;20651;-88
2021/12/25 06:51:43;;;;;;;7.03;5.83;;;;;;;2.09;100.00;98008.38;5074801;28;20196;-87
2021/12/25 06:54:12;;;;;;;6.97;6.00;;;;;;;2.01;100.00;98013.13;5064495;28;20199;-87
2021/12/25 06:56:43;;;;;;;7.90;6.37;;;;;;;1.98;100.00;98006.28;5085349;28;20219;-84
2021/12/25 06:59:16;;;;;;;7.53;6.20;;;;;;;2.06;100.00;98019.00;5076077;28;20669;-88
2021/12/25 07:01:44;;;;;;;8.70;7.10;;;;;;;2.16;100.00;98015.00;5065570;28;20196;-87
2021/12/25 07:04:13;;;;;;;8.27;6.90;;;;;;;2.30;100.00;98014.31;5071005;28;20658;-87
2021/12/25 07:06:42;;;;;;;9.37;7.37;;;;;;;2.13;100.00;98027.38;5069205;28;20312;-88
2021/12/25 07:09:11;;;;;;;7.73;6.53;;;;;;;2.13;100.00;98028.22;5069187;28;20219;-86
2021/12/25 07:11:39;;;;;;;8.33;6.17;;;;;;;2.07;100.00;98025.91;5071912;28;20231;-86
2021/12/25 07:14:09;;;;;;;6.93;6.07;;;;;;;1.85;100.00;98028.69;5070777;28;20203;-88
2021/12/25 07:16:40;;;;;;;7.00;5.67;;;;;;;1.95;100.00;98029.94;5069067;28;20299;-88
2021/12/25 07:19:12;;;;;;;5.73;4.97;;;;;;;1.79;100.00;98034.19;5067020;28;20196;-88
2021/12/25 07:21:40;;;;;;;7.53;6.13;;;;;;;1.86;100.00;98047.81;5074192;28;20207;-88
2021/12/25 07:24:09;;;;;;;6.67;5.37;;;;;;;1.75;100.00;98037.88;5074832;28;20196;-88
2021/12/25 07:26:39;;;;;;;7.50;6.20;;;;;;;1.72;100.00;98038.84;5078006;28;20643;-88
2021/12/25 07:29:07;;;;;;;14.73;9.80;;;;;;;1.75;100.00;98031.81;5073568;28;20246;-88
2021/12/25 07:31:36;;;;;;;17.77;11.53;;;;;;;1.60;100.00;98042.03;5067137;28;20196;-88
2021/12/25 07:34:06;;;;;;;25.17;14.43;;;;;;;1.60;100.00;98052.47;5080127;28;20200;-88
2021/12/25 07:36:35;;;;;;;23.57;13.00;;;;;;;1.59;100.00;98047.31;5086230;28;20192;-87
2021/12/25 07:39:05;;;;;;;30.43;18.70;;;;;;;1.40;100.00;98052.53;5085091;28;20193;-86
2021/12/25 07:41:33;;;;;;;18.17;10.87;;;;;;;1.59;100.00;98057.75;5085420;28;20268;-87
2021/12/25 07:44:04;;;;;;;12.93;8.07;;;;;;;1.45;100.00;98063.63;5068663;28;20595;-88
2021/12/25 07:46:33;;;;;;;24.20;14.93;;;;;;;1.43;100.00;98065.41;5068775;28;20196;-88
2021/12/25 07:49:04;;;;;;;16.07;10.53;;;;;;;1.41;100.00;98069.88;5068995;28;20216;-88
2021/12/25 07:51:35;;;;;;;16.30;11.17;;;;;;;1.44;100.00;98078.38;5074537;28;20205;-84
2021/12/25 07:54:04;;;;;;;10.37;6.87;;;;;;;1.37;100.00;98083.97;5081134;28;20200;-88
2021/12/25 07:56:32;;;;;;;8.87;6.83;;;;;;;1.33;100.00;98082.38;5081466;28;20252;-87
2021/12/25 07:59:00;;;;;;;13.70;10.07;;;;;;;1.17;100.00;98089.22;5069038;28;20196;-86
2021/12/25 08:01:29;;;;;;;9.00;6.47;;;;;;;1.21;100.00;98093.38;5072086;28;20196;-87
2021/12/25 08:03:59;;;;;;;10.43;8.23;;;;;;;1.02;100.00;98091.56;5071492;28;20196;-86
2021/12/25 08:06:27;;;;;;;12.40;8.70;;;;;;;1.01;100.00;98092.47;5068999;28;20200;-87
2021/12/25 08:08:59;;;;;;;8.70;6.57;;;;;;;1.02;100.00;98103.75;5071726;28;20295;-87
2021/12/25 08:11:30;;;;;;;10.43;7.80;;;;;;;1.00;100.00;98100.34;5075228;28;20192;-86
2021/12/25 08:13:58;;;;;;;8.23;6.63;;;;;;;1.00;100.00;98101.19;5073893;28;20242;-84
2021/12/25 08:16:27;;;;;;;10.87;8.40;;;;;;;0.94;100.00;98100.59;5081671;28;20188;-87
2021/12/25 08:18:56;;;;;;;9.67;7.80;;;;;;;0.90;100.00;98105.13;5070960;28;20670;-86
2021/12/25 08:21:25;;;;;;;14.03;11.50;;;;;;;0.89;100.00;98107.78;5067158;28;20200;-86
2021/12/25 08:23:54;;;;;;;9.27;7.60;;;;;;;1.03;100.00;98116.69;5066765;28;20204;-87
2021/12/25 08:26:24;;;;;;;8.77;6.53;;;;;;;0.98;100.00;98123.03;5071517;28;20202;-86
2021/12/25 08:28:53;;;;;;;6.93;5.73;;;;;;;0.83;100.00;98117.53;5067683;28;20216;-86
2021/12/25 08:31:21;;;;;;;5.07;4.27;;;;;;;0.90;100.00;98128.56;5069512;28;20189;-85
2021/12/25 08:33:50;;;;;;;6.57;4.97;;;;;;;1.09;100.00;98126.88;5071125;28;20196;-86
2021/12/25 08:36:18;;;;;;;8.30;5.80;;;;;;;1.05;100.00;98133.13;5079734;28;20196;-88
2021/12/25 08:38:47;;;;;;;7.00;5.00;;;;;;;1.02;100.00;98125.44;5075210;28;20204;-87
2021/12/25 08:41:17;;;;;;;6.93;4.90;;;;;;;0.99;100.00;98124.72;5081341;28;20200;-85
2021/12/25 08:43:48;;;;;;;3.87;3.47;;;;;;;0.86;100.00;98125.22;5086460;28;20200;-86
2021/12/25 08:46:35;;;;;;;4.83;4.13;;;;;;;0.81;100.00;98124.59;5083143;28;20255;-87
2021/12/25 08:49:06;;;;;;;5.40;3.83;;;;;;;1.01;100.00;98136.78;5074662;28;20242;-87
2021/12/25 08:51:35;;;;;;;5.60;4.27;;;;;;;0.98;100.00;98131.72;5074606;28;20195;-87
2021/12/25 08:54:03;;;;;;;5.23;3.50;;;;;;;0.83;100.00;98138.41;5071113;28;20195;-87
2021/12/25 08:56:31;;;;;;;5.40;4.90;;;;;;;0.80;100.00;98133.31;5072979;28;20670;-87
2021/12/25 08:59:01;;;;;;;8.23;5.60;;;;;;;0.79;100.00;98141.19;5075346;28;20193;-86
2021/12/25 09:01:29;;;;;;;6.93;4.40;;;;;;;0.70;100.00;98145.03;5023460;28;20667;-85
2021/12/25 09:03:59;;;;;;;10.30;7.20;;;;;;;0.81;100.00;98149.81;5073122;28;20192;-87
2021/12/25 09:06:29;;;;;;;6.10;3.90;;;;;;;0.78;100.00;98156.00;5071408;28;20258;-85
2021/12/25 09:09:01;;;;;;;6.33;4.50;;;;;;;0.87;100.00;98162.59;5073831;28;20742;-87
2021/12/25 09:11:29;;;;;;;4.67;3.73;;;;;;;0.84;100.00;98160.94;5068690;28;20253;-86
2021/12/25 09:13:58;;;;;;;4.07;3.60;;;;;;;0.56;100.00;98163.81;5056472;28;20659;-87
2021/12/25 09:16:28;;;;;;;6.43;4.43;;;;;;;0.63;100.00;98167.03;5074462;28;20208;-87
2021/12/25 09:18:56;;;;;;;6.03;4.07;;;;;;;0.63;100.00;98174.00;5073904;28;20188;-88
2021/12/25 09:21:24;;;;;;;5.87;3.30;;;;;;;0.53;100.00;98166.53;5078077;28;20204;-87
2021/12/25 09:23:53;;;;;;;5.47;4.00;;;;;;;0.46;100.00;98177.25;5074040;28;20191;-86
2021/12/25 09:26:21;;;;;;;4.00;3.30;;;;;;;0.58;100.00;98179.41;5013298;28;20194;-87
2021/12/25 09:28:49;;;;;;;3.90;3.23;;;;;;;0.44;100.00;98176.47;5006937;28;20269;-87
2021/12/25 09:31:19;;;;;;;4.40;3.37;;;;;;;0.41;100.00;98189.63;5015427;28;20194;-86
2021/12/25 09:33:51;;;;;;;5.90;4.07;;;;;;;0.50;100.00;98197.09;4989502;28;20741;-86
2021/12/25 09:36:20;;;;;;;5.90;4.27;;;;;;;0.67;100.00;98192.03;4994160;28;20199;-87
2021/12/25 09:38:50;;;;;;;5.67;4.03;;;;;;;0.54;100.00;98202.09;4992360;28;20657;-82
2021/12/25 09:41:21;;;;;;;3.97;3.03;;;;;;;0.61;100.00;98201.88;5015454;28;20187;-86
2021/12/25 09:43:50;;;;;;;3.63;2.40;;;;;;;0.44;100.00;98203.38;4988520;28;20206;-87
2021/12/25 09:46:20;;;;;;;4.30;2.73;;;;;;;0.65;100.00;98200.81;5008269;28;20198;-87
2021/12/25 09:48:50;;;;;;;3.30;2.47;;;;;;;0.48;100.00;98201.47;4999261;28;20761;-86
2021/12/25 09:51:22;;;;;;;2.77;2.30;;;;;;;0.67;100.00;98210.28;5005363;28;20237;-88
2021/12/25 09:53:57;;;;;;;3.10;2.40;;;;;;;0.49;100.00;98206.66;5009228;28;20237;-86
2021/12/25 09:56:26;;;;;;;3.27;2.60;;;;;;;0.50;100.00;98205.75;5004792;28;20213;-88
2021/12/25 09:58:55;;;;;;;3.50;2.40;;;;;;;0.25;100.00;98198.00;5009300;28;20204;-86
2021/12/25 10:01:39;;;;;;;2.93;2.47;;;;;;;0.33;100.00;98200.34;5022815;28;20189;-88
2021/12/25 10:04:11;;;;;;;2.40;2.20;;;;;;;0.39;100.00;98212.28;5056941;28;20224;-87
2021/12/25 10:06:44;;;;;;;3.03;2.40;;;;;;;0.36;100.00;98212.38;5050021;28;20208;-87
2021/12/25 10:09:17;;;;;;;3.17;2.30;;;;;;;0.46;100.00;98221.53;5052451;28;20335;-88
2021/12/25 10:12:02;;;;;;;7.93;2.60;;;;;;;0.38;100.00;98223.56;5054813;28;20193;-88
2021/12/25 10:14:35;;;;;;;4.27;2.83;;;;;;;0.34;100.00;98222.00;5056126;28;20352;-87
2021/12/25 10:17:15;;;;;;;2.67;2.43;;;;;;;0.44;100.00;98224.19;5043553;28;20185;-87
2021/12/25 10:20:01;;;;;;;3.27;2.50;;;;;;;0.29;100.00;98232.63;5046986;28;20196;-86
2021/12/25 10:22:31;;;;;;;5.97;4.47;;;;;;;0.23;100.00;98227.63;5054697;28;20192;-87
2021/12/25 10:25:10;;;;;;;7.27;5.13;;;;;;;0.36;100.00;98223.63;5049684;28;20285;-87
2021/12/25 10:27:47;;;;;;;4.77;3.37;;;;;;;0.32;100.00;98232.50;5050892;28;20672;-86
2021/12/25 10:30:15;;;;;;;4.83;3.40;;;;;;;0.27;100.00;98229.19;5047695;28;20247;-87
2021/12/25 10:32:45;;;;;;;7.90;3.67;;;;;;;0.27;100.00;98230.03;5054581;28;20213;-87
2021/12/25 10:35:20;;;;;;;3.40;2.70;;;;;;;0.40;100.00;98225.25;5049477;28;20193;-88
2021/12/25 10:37:59;;;;;;;4.57;2.60;;;;;;;0.35;100.00;98223.69;5050453;28;20185;-87
2021/12/25 10:40:31;;;;;;;4.17;3.60;;;;;;;0.22;100.00;98216.38;5020382;28;20197;-86
2021/12/25 10:43:02;;;;;;;16.97;9.00;;;;;;;0.48;100.00;98217.09;5052556;28;20197;-87
2021/12/25 10:45:34;;;;;;;7.33;4.47;;;;;;;0.28;100.00;98221.31;5052382;28;20201;-87
2021/12/25 10:48:07;;;;;;;5.20;3.37;;;;;;;0.19;100.00;98219.09;5045361;28;20200;-87
2021/12/25 10:50:41;;;;;;;7.33;3.43;;;;;;;0.23;100.00;98222.41;5052590;28;20265;-86
2021/12/25 10:53:29;;;;;;;7.43;5.70;;;;;;;0.24;100.00;98221.50;5047360;28;20200;-86
2021/12/25 10:56:07;;;;;;;9.07;6.13;;;;;;;0.10;100.00;98223.78;5048626;28;20200;-87
2021/12/25 10:58:35;;;;;;;6.03;4.20;;;;;;;0.11;100.00;98221.13;5052330;28;20201;-86
2021/12/25 11:01:07;;;;;;;4.93;3.70;;;;;;;-0.10;100.00;98221.88;5050427;28;20653;-87
2021/12/25 11:03:38;;;;;;;5.93;4.77;;;;;;;0.14;100.00;98220.16;5048050;28;20220;-87
2021/12/25 11:06:11;;;;;;;6.37;4.03;;;;;;;0.05;100.00;98221.34;5053911;28;20230;-87
2021/12/25 11:08:39;;;;;;;4.53;3.40;;;;;;;0.12;100.00;98222.81;5018179;28;20217;-88
2021/12/25 11:11:10;;;;;;;5.57;3.40;;;;;;;0.12;100.00;98230.63;5013453;28;20213;-88
2021/12/25 11:13:42;;;;;;;4.10;3.10;;;;;;;0.02;100.00;98224.06;5050428;28;20197;-87
2021/12/25 11:16:26;;;;;;;3.90;3.00;;;;;;;0.28;100.00;98226.53;5044087;28;20674;-87
2021/12/25 11:19:04;;;;;;;4.80;3.00;;;;;;;0.33;100.00;98220.31;5045708;28;20208;-87
2021/12/25 11:21:37;;;;;;;4.37;2.77;;;;;;;0.30;100.00;98212.63;5048018;28;20196;-88
2021/12/25 11:24:17;;;;;;;2.90;2.40;;;;;;;0.44;100.00;98216.38;5049572;28;20189;-87
2021/12/25 11:26:49;;;;;;;3.60;2.60;;;;;;;0.36;100.00;98210.63;5040819;28;20216;-88
2021/12/25 11:29:19;;;;;;;3.07;2.67;;;;;;;0.34;100.00;98215.03;5048727;28;20246;-86
2021/12/25 11:31:50;;;;;;;4.30;2.80;;;;;;;0.08;100.00;98213.41;5049144;28;20233;-86
2021/12/25 11:34:20;;;;;;;5.20;2.73;;;;;;;0.17;100.00;98215.66;5052392;28;20268;-87
2021/12/25 11:36:53;;;;;;;3.20;2.60;;;;;;;0.25;100.00;98218.84;5048038;28;20422;-86
2021/12/25 11:39:23;;;;;;;4.23;3.67;;;;;;;0.26;100.00;98223.13;5050353;28;20195;-88
2021/12/25 11:41:55;;;;;;;8.17;7.30;;;;;;;0.34;100.00;98217.66;5048274;28;20200;-86
2021/12/25 11:44:31;;;;;;;7.60;6.90;;;;;;;0.43;100.00;98219.91;5051264;28;20212;-86
2021/12/25 11:46:59;;;;;;;4.80;3.30;;;;;;;0.24;100.00;98222.34;5045932;28;20195;-85
2021/12/25 11:49:28;;;;;;;3.43;2.70;;;;;;;0.15;100.00;98220.09;5048863;28;20204;-86
2021/12/25 11:52:13;;;;;;;2.40;2.20;;;;;;;0.38;100.00;98218.38;4973201;28;20198;-87
2021/12/25 11:55:01;;;;;;;2.97;2.20;;;;;;;0.19;100.00;98220.81;4952390;29;20196;-87
2021/12/25 11:57:47;;;;;;;2.87;2.50;;;;;;;0.28;100.00;98217.88;4952168;29;20201;-87
2021/12/25 12:00:35;;;;;;;2.53;2.33;;;;;;;0.22;100.00;98225.94;4950844;29;20196;-87
2021/12/25 12:03:04;;;;;;;3.50;3.20;;;;;;;0.24;100.00;98224.13;4953366;29;20188;-87
2021/12/25 12:05:35;;;;;;;4.73;3.30;;;;;;;0.36;100.00;98228.00;4958047;29;20200;-87
2021/12/25 12:08:08;;;;;;;3.40;3.03;;;;;;;0.41;100.00;98226.09;4951903;29;20208;-88
2021/12/25 12:10:52;;;;;;;3.47;3.00;;;;;;;0.43;100.00;98224.25;4989539;28;20218;-88
2021/12/25 12:13:25;;;;;;;4.77;3.50;;;;;;;0.42;100.00;98222.56;5041071;28;20197;-87
2021/12/25 12:15:57;;;;;;;3.30;3.00;;;;;;;0.34;100.00;98222.00;5052554;28;20192;-87
2021/12/25 12:18:37;;;;;;;4.63;4.13;;;;;;;0.22;100.00;98224.16;5048070;28;20656;-86
2021/12/25 12:21:11;;;;;;;3.57;3.00;;;;;;;0.19;100.00;98228.63;5046538;28;20193;-87
2021/12/25 12:23:52;;;;;;;4.87;4.10;;;;;;;0.41;100.00;98226.94;5050821;28;20252;-88
2021/12/25 12:26:50;;;;;;;4.23;3.50;;;;;;;0.30;100.00;98230.84;5044295;28;20204;-87
2021/12/25 12:29:47;;;;;;;3.73;3.10;;;;;;;0.23;100.00;98241.50;5038501;28;20193;-88
2021/12/25 12:32:35;;;;;;;4.83;3.50;;;;;;;0.19;100.00;98233.84;5053127;28;20236;-87
2021/12/25 12:35:05;;;;;;;8.23;2.97;;;;;;;0.42;100.00;98239.03;5048663;28;20213;-87
2021/12/25 12:37:34;;;;;;;8.17;6.13;;;;;;;0.36;100.00;98233.22;5048837;28;20208;-87
2021/12/25 12:40:26;;;;;;;10.43;7.77;;;;;;;0.32;100.00;98234.25;5061137;28;20333;-82
2021/12/25 12:43:01;;;;;;;5.30;4.07;;;;;;;0.25;100.00;98234.47;5058662;28;20177;-86
2021/12/25 12:45:34;;;;;;;2.50;2.30;;;;;;;0.17;100.00;98233.03;5045623;28;20201;-88